Time;durP1;ratioP1;P1;durP2;ratioP2;P2;SDS_P1;SDS_P2;PMS_P1;PMS_P2;Temp;Humidity;BMP_temperature;BMP_pressure;BME280_temperature;BME280_humidity;BME280_pressure;Samples;Min_cycle;Max_cycle;Signal;HPM_P1;HPM_P2
2023/05/12 00:01:29;;;;;;;;;;;19.10;34.20;;;18.16;33.67;101378.38;12253880;19;19994;-84
2023/05/12 00:05:30;;;;;;;;;;;19.10;34.70;;;18.03;34.05;101369.72;12254437;19;19911;-84
2023/05/12 00:09:32;;;;;;;;;;;19.00;34.60;;;18.04;33.88;101374.91;12253317;19;19922;-84
2023/05/12 00:13:33;;;;;;;;;;;19.00;34.60;;;17.80;33.94;101331.84;12250702;19;19922;-84
2023/05/12 00:17:35;;;;;;;;;;;18.90;34.90;;;17.95;33.87;101354.44;12250093;19;19946;-84
2023/05/12 00:21:37;;;;;;;;;;;18.90;34.60;;;18.04;33.97;101380.19;12251827;19;19929;-85
2023/05/12 00:25:38;;;;;;;;;;;18.90;34.50;;;18.05;34.22;101375.72;12250731;19;20389;-84
2023/05/12 00:29:40;;;;;;;;;;;18.90;34.60;;;18.08;34.08;101391.34;12250171;19;19918;-84
2023/05/12 00:33:41;;;;;;;;;;;18.90;34.60;;;18.04;34.13;101374.06;12253336;19;19918;-84
2023/05/12 00:37:43;;;;;;;;;;;18.90;34.70;;;18.00;34.04;101368.16;12248760;19;20393;-84
2023/05/12 00:41:46;;;;;;;;;;;18.90;34.50;;;17.92;33.96;101357.31;12253355;19;19915;-84
2023/05/12 00:45:48;;;;;;;;;;;19.00;34.40;;;18.01;34.24;101368.97;12251424;19;19923;-84
2023/05/12 00:49:50;;;;;;;;;;;19.00;34.40;;;18.00;34.26;101369.94;12249159;19;19982;-85
2023/05/12 00:53:52;;;;;;;;;;;19.00;34.40;;;18.07;33.98;101395.81;12250543;19;20264;-84
2023/05/12 00:57:54;;;;;;;;;;;19.00;34.50;;;18.00;34.01;101385.81;12247898;19;20361;-86
2023/05/12 01:01:56;;;;;;;;;;;18.90;34.20;;;17.88;34.23;101379.66;12251432;19;20333;-84
2023/05/12 01:06:25;;;;;;;;;;;18.90;34.40;;;17.95;34.16;101387.94;12249949;19;19935;-84
2023/05/12 01:10:27;;;;;;;;;;;18.90;34.30;;;17.80;34.22;101382.03;12249744;19;19915;-84
2023/05/12 01:14:29;;;;;;;;;;;18.80;34.40;;;17.80;34.18;101384.69;12250324;19;19936;-86
2023/05/12 01:18:33;;;;;;;;;;;18.80;34.50;;;17.52;34.35;101354.16;12251678;19;19942;-85
2023/05/12 01:22:36;;;;;;;;;;;18.70;34.40;;;17.67;34.34;101382.06;12249995;19;19915;-85
2023/05/12 01:26:38;;;;;;;;;;;18.70;34.40;;;17.74;34.33;101398.31;12242930;19;19911;-85
2023/05/12 01:30:41;;;;;;;;;;;18.70;34.70;;;17.45;34.16;101353.78;12243327;19;20351;-86
2023/05/12 01:34:45;;;;;;;;;;;18.60;34.60;;;17.43;34.37;101364.44;12245634;19;19932;-85
2023/05/12 01:38:47;;;;;;;;;;;18.60;34.50;;;17.63;34.32;101399.97;12248450;19;19915;-85
2023/05/12 01:42:48;;;;;;;;;;;18.60;34.50;;;17.63;34.39;101409.66;12247251;19;19923;-85
2023/05/12 01:46:50;;;;;;;;;;;18.50;34.50;;;17.54;34.22;101400.63;12244548;19;19918;-86
2023/05/12 01:50:52;;;;;;;;;;;18.50;34.60;;;17.31;34.50;101367.13;12249139;19;19943;-85
2023/05/12 01:54:55;;;;;;;;;;;18.50;34.40;;;17.42;34.53;101393.63;12247346;19;19931;-85
2023/05/12 01:58:57;;;;;;;;;;;18.40;34.40;;;17.46;34.40;101395.91;12250102;19;19923;-86
2023/05/12 02:02:59;;;;;;;;;;;18.40;34.50;;;17.40;34.23;101406.09;12247385;19;19922;-85
2023/05/12 02:07:00;;;;;;;;;;;18.30;34.40;;;17.33;34.54;101410.13;12240928;19;19918;-85
2023/05/12 02:11:06;;;;;;;;;;;18.30;34.50;;;17.29;34.60;101413.94;12245342;19;19910;-85
2023/05/12 02:15:08;;;;;;;;;;;18.20;34.60;;;17.23;34.45;101424.00;12246047;19;20321;-85
2023/05/12 02:19:12;;;;;;;;;;;18.10;34.50;;;17.04;34.52;101407.81;12247658;19;20417;-85
2023/05/12 02:23:17;;;;;;;;;;;18.10;34.70;;;17.04;34.72;101415.72;12242204;19;20233;-85
2023/05/12 02:27:19;;;;;;;;;;;18.00;34.60;;;16.96;34.48;101410.16;12239548;19;19929;-85
2023/05/12 02:31:22;;;;;;;;;;;17.90;34.60;;;16.88;34.65;101423.03;12247383;19;19910;-86
2023/05/12 02:35:23;;;;;;;;;;;17.80;34.50;;;16.74;34.58;101414.28;12245474;19;19922;-86
2023/05/12 02:39:25;;;;;;;;;;;17.70;34.60;;;16.58;34.52;101411.84;12258878;19;20250;-85
2023/05/12 02:43:27;;;;;;;;;;;17.60;34.70;;;16.54;34.69;101425.34;12259179;19;19911;-86
2023/05/12 02:47:31;;;;;;;;;;;17.60;34.50;;;16.50;34.73;101431.75;12249555;19;19982;-85
2023/05/12 02:51:33;;;;;;;;;;;17.40;34.50;;;16.43;34.61;101430.53;12259074;19;19915;-86
2023/05/12 02:55:35;;;;;;;;;;;17.40;34.70;;;16.35;34.90;101423.13;12256664;19;19926;-85
2023/05/12 02:59:37;;;;;;;;;;;17.30;34.60;;;16.22;34.78;101409.94;12258487;19;19919;-86
2023/05/12 03:03:39;;;;;;;;;;;17.30;34.70;;;16.29;34.78;101437.56;12256325;19;19930;-85
2023/05/12 03:07:41;;;;;;;;;;;17.20;34.60;;;16.18;34.68;101423.44;12253573;19;19915;-86
2023/05/12 03:11:43;;;;;;;;;;;17.20;35.30;;;16.12;34.73;101428.19;12257340;19;19915;-86
2023/05/12 03:15:44;;;;;;;;;;;17.10;35.00;;;15.93;34.86;101411.91;12254059;19;19962;-86
2023/05/12 03:19:46;;;;;;;;;;;17.00;34.80;;;16.00;34.87;101433.41;12255348;19;20680;-86
2023/05/12 03:23:47;;;;;;;;;;;16.80;34.80;;;15.85;34.92;101422.97;12255691;19;19914;-86
2023/05/12 03:27:49;;;;;;;;;;;16.80;34.80;;;15.89;34.88;101439.41;12252172;19;19946;-86
2023/05/12 03:31:51;;;;;;;;;;;16.80;34.90;;;15.79;34.90;101436.53;12254914;19;19957;-86
2023/05/12 03:35:53;;;;;;;;;;;16.80;35.20;;;15.45;35.03;101399.22;12252085;19;20353;-85
2023/05/12 03:39:57;;;;;;;;;;;16.70;35.10;;;15.73;35.10;101446.63;12255298;19;19978;-86
2023/05/12 03:43:59;;;;;;;;;;;16.60;35.10;;;15.62;35.16;101444.66;12250740;19;19927;-86
2023/05/12 03:48:00;;;;;;;;;;;16.60;35.10;;;15.59;35.08;101458.03;12249926;19;20543;-86
2023/05/12 03:52:02;;;;;;;;;;;16.60;35.10;;;15.25;35.13;101403.09;12253175;19;20266;-86
2023/05/12 03:56:04;;;;;;;;;;;16.40;35.20;;;15.52;35.17;101454.09;12242850;19;19934;-88
2023/05/12 04:00:07;;;;;;;;;;;16.40;35.30;;;15.34;35.15;101428.00;12252081;19;20344;-88
2023/05/12 04:04:18;;;;;;;;;;;16.40;35.20;;;15.32;35.10;101443.06;12252320;19;19914;-86
2023/05/12 04:08:19;;;;;;;;;;;16.40;35.10;;;15.34;35.31;101445.56;12249094;19;19921;-88
2023/05/12 04:12:22;;;;;;;;;;;16.30;35.20;;;15.27;35.21;101445.13;12251119;19;19907;-88
2023/05/12 04:16:23;;;;;;;;;;;16.30;35.30;;;15.30;35.34;101465.13;12249558;19;19911;-87
2023/05/12 04:20:25;;;;;;;;;;;16.20;35.40;;;15.28;35.38;101462.59;12249816;19;19970;-88
2023/05/12 04:24:27;;;;;;;;;;;16.20;35.50;;;15.20;35.45;101449.94;12250274;19;20388;-88
2023/05/12 04:28:28;;;;;;;;;;;16.20;35.60;;;15.19;35.48;101456.13;12249325;19;20534;-87
2023/05/12 04:32:30;;;;;;;;;;;16.10;35.90;;;15.18;35.35;101461.50;12244506;19;20393;-88
2023/05/12 04:36:32;;;;;;;;;;;16.10;35.90;;;15.20;35.63;101470.13;12247307;19;19951;-88
2023/05/12 04:40:34;;;;;;;;;;;16.10;35.70;;;15.08;35.43;101455.13;12248832;19;20335;-88
2023/05/12 04:44:37;;;;;;;;;;;16.20;35.80;;;15.11;35.54;101454.94;12250208;19;19918;-88
2023/05/12 04:48:40;;;;;;;;;;;16.20;36.50;;;15.18;35.70;101466.78;12246249;19;20261;-89
2023/05/12 04:52:42;;;;;;;;;;;16.20;36.50;;;14.95;35.71;101426.09;12250536;19;19911;-89
2023/05/12 04:56:44;;;;;;;;;;;16.20;36.80;;;15.23;35.80;101465.53;12244409;19;19919;-88
2023/05/12 05:00:46;;;;;;;;;;;16.30;36.70;;;15.24;35.86;101461.09;12245931;19;20310;-88
2023/05/12 05:04:47;;;;;;;;;;;16.30;36.60;;;15.42;35.95;101488.91;12249292;19;19923;-88
2023/05/12 05:08:49;;;;;;;;;;;16.40;36.00;;;15.48;35.99;101488.50;12242523;19;19986;-89
2023/05/12 05:12:51;;;;;;;;;;;16.50;36.40;;;15.49;35.99;101486.72;12246123;19;20325;-89
2023/05/12 05:16:53;;;;;;;;;;;16.60;36.50;;;15.61;35.92;101504.38;12243754;19;19933;-88
2023/05/12 05:20:55;;;;;;;;;;;16.70;35.90;;;15.55;35.96;101481.03;12247844;19;19923;-89
2023/05/12 05:24:57;;;;;;;;;;;16.70;36.10;;;15.71;36.07;101496.75;12243659;19;19927;-89
2023/05/12 05:28:59;;;;;;;;;;;16.80;36.40;;;15.66;36.06;101480.34;12242962;19;20668;-87
2023/05/12 05:33:01;;;;;;;;;;;16.90;36.70;;;15.82;36.23;101493.41;12245620;19;19922;-88
2023/05/12 05:37:03;;;;;;;;;;;16.90;36.90;;;15.78;36.14;101476.97;12242377;19;19915;-88
2023/05/12 05:41:05;;;;;;;;;;;17.00;37.90;;;15.91;36.30;101477.03;12244706;19;19923;-87
2023/05/12 05:45:07;;;;;;;;;;;17.10;37.20;;;16.15;36.25;101499.13;12242809;19;19951;-86
2023/05/12 05:49:09;;;;;;;;;;;17.20;36.90;;;16.16;36.42;101486.78;12240652;19;19953;-88
2023/05/12 05:53:10;;;;;;;;;;;17.30;36.90;;;16.37;36.37;101495.06;12245049;19;19923;-87
2023/05/12 05:57:12;;;;;;;;;;;17.50;38.00;;;16.54;36.48;101510.56;12244766;19;19933;-86
2023/05/12 06:01:14;;;;;;;;;;;17.60;37.20;;;16.73;36.30;101515.44;12246763;19;19911;-85
2023/05/12 06:05:16;;;;;;;;;;;17.80;37.70;;;16.97;36.36;101522.66;12244789;19;19926;-85
2023/05/12 06:09:18;;;;;;;;;;;18.00;37.10;;;17.03;36.39;101511.66;12244107;19;19935;-86
2023/05/12 06:13:19;;;;;;;;;;;18.20;36.00;;;17.19;36.35;101521.97;12253140;19;20297;-85
2023/05/12 06:17:21;;;;;;;;;;;18.30;36.70;;;17.34;36.34;101533.28;12254627;19;19923;-84
2023/05/12 06:21:22;;;;;;;;;;;18.50;36.50;;;17.31;36.46;101501.78;12259981;19;20331;-85
2023/05/12 06:25:23;;;;;;;;;;;18.60;36.80;;;17.52;36.32;101529.28;12256360;19;20314;-85
2023/05/12 06:29:25;;;;;;;;;;;18.70;36.20;;;17.58;36.38;101528.88;12253560;19;19917;-84
2023/05/12 06:33:27;;;;;;;;;;;18.80;36.10;;;17.68;36.41;101526.41;12254671;19;19919;-84
2023/05/12 06:37:28;;;;;;;;;;;18.90;36.00;;;17.60;36.29;101503.19;12250892;19;19915;-84
2023/05/12 06:41:31;;;;;;;;;;;19.00;35.80;;;17.90;36.27;101534.50;12254451;19;20265;-83
2023/05/12 06:45:32;;;;;;;;;;;19.10;37.00;;;18.04;36.30;101541.41;12255341;19;19907;-84
2023/05/12 06:49:37;;;;;;;;;;;19.20;36.60;;;18.15;36.27;101543.25;12252962;19;19915;-84
2023/05/12 06:53:40;;;;;;;;;;;19.30;36.10;;;18.23;36.46;101542.69;12257248;19;19919;-84
2023/05/12 06:57:42;;;;;;;;;;;19.40;36.40;;;18.24;36.25;101525.88;12251540;19;20294;-86
2023/05/12 07:01:44;;;;;;;;;;;19.40;36.30;;;18.45;36.20;101547.22;12248476;19;20403;-85
2023/05/12 07:05:45;;;;;;;;;;;19.60;35.90;;;18.58;36.33;101548.81;12250423;19;19915;-85
2023/05/12 07:09:47;;;;;;;;;;;19.70;36.40;;;18.70;36.28;101546.19;12247384;19;19939;-85
2023/05/12 07:13:49;;;;;;;;;;;19.90;35.90;;;18.61;36.41;101515.16;12254249;19;19931;-85
2023/05/12 07:17:51;;;;;;;;;;;20.00;36.10;;;18.99;36.52;101551.94;12245028;19;19978;-84
2023/05/12 07:21:53;;;;;;;;;;;20.10;36.50;;;19.06;36.42;101533.75;12250306;19;19914;-85
2023/05/12 07:25:54;;;;;;;;;;;20.20;36.20;;;19.30;36.16;101539.75;12246828;19;19978;-84
2023/05/12 07:29:56;;;;;;;;;;;20.40;36.30;;;19.35;36.34;101524.34;12246874;19;20340;-85
2023/05/12 07:33:57;;;;;;;;;;;20.50;36.00;;;19.60;36.50;101531.16;12250831;19;19932;-84
2023/05/12 07:37:59;;;;;;;;;;;20.70;35.80;;;19.68;36.49;101525.28;12246460;19;19982;-85
2023/05/12 07:42:01;;;;;;;;;;;20.90;36.10;;;19.91;36.16;101539.31;12251415;19;19931;-85
2023/05/12 07:46:02;;;;;;;;;;;21.00;35.80;;;20.11;36.30;101535.03;12249625;19;19911;-85
2023/05/12 07:50:05;;;;;;;;;;;21.20;35.70;;;20.29;36.34;101537.97;12247242;19;19986;-85
2023/05/12 07:54:07;;;;;;;;;;;21.40;35.60;;;20.54;35.95;101544.75;12248531;19;20268;-85
2023/05/12 07:58:09;;;;;;;;;;;21.60;35.20;;;20.62;36.49;101542.28;12247309;19;19915;-85
2023/05/12 08:02:10;;;;;;;;;;;21.80;35.20;;;20.78;36.09;101532.03;12249952;19;19914;-85
2023/05/12 08:06:12;;;;;;;;;;;22.00;34.80;;;20.83;35.98;101520.19;12246950;19;20344;-85
2023/05/12 08:10:13;;;;;;;;;;;22.10;34.90;;;21.18;35.92;101536.56;12240584;19;19930;-85
2023/05/12 08:14:14;;;;;;;;;;;22.40;35.10;;;21.33;36.22;101529.09;12249741;19;20344;-85
2023/05/12 08:18:16;;;;;;;;;;;22.50;34.70;;;21.51;35.83;101526.63;12246731;19;19967;-85
2023/05/12 08:22:17;;;;;;;;;;;22.70;34.40;;;;;;12249027;19;20529;-85
2023/05/12 08:26:20;;;;;;;;;;;22.90;33.30;;;21.76;35.97;101492.53;12248111;19;20244;-84
2023/05/12 08:30:21;;;;;;;;;;;23.10;33.80;;;22.06;35.65;101518.13;12249894;19;19907;-84
2023/05/12 08:34:24;;;;;;;;;;;23.30;32.30;;;22.25;35.74;101522.66;12248491;19;19931;-85
2023/05/12 08:38:25;;;;;;;;;;;23.40;32.90;;;22.41;35.56;101530.06;12246116;19;19951;-85
2023/05/12 08:42:41;;;;;;;;;;;23.60;32.30;;;22.56;35.64;101536.63;12249968;19;19982;-85
2023/05/12 08:46:43;;;;;;;;;;;23.70;33.00;;;22.67;35.44;101524.97;12246042;19;19978;-85
2023/05/12 08:50:47;;;;;;;;;;;23.90;31.80;;;22.66;34.95;101512.66;12250255;19;19925;-85
2023/05/12 08:54:49;;;;;;;;;;;24.00;32.30;;;22.87;35.18;101517.75;12247868;19;20252;-85
2023/05/12 08:58:52;;;;;;;;;;;24.10;30.40;;;22.79;34.75;101497.19;12249014;19;19930;-85
2023/05/12 09:02:54;;;;;;;;;;;24.20;31.00;;;23.14;34.81;101528.50;12250155;19;19922;-85
2023/05/12 09:06:57;;;;;;;;;;;24.30;31.40;;;23.26;34.77;101518.47;12244428;19;20250;-86
2023/05/12 09:10:59;;;;;;;;;;;24.40;30.90;;;23.46;34.45;101534.34;12248179;19;20400;-85
2023/05/12 09:15:06;;;;;;;;;;;24.50;31.30;;;23.39;34.05;101500.31;12245944;19;19911;-84
2023/05/12 09:19:08;;;;;;;;;;;24.60;29.60;;;23.61;34.07;101516.88;12249794;19;19915;-85
2023/05/12 09:23:17;;;;;;;;;;;24.70;30.10;;;23.66;33.87;101506.59;12247200;19;19966;-84
2023/05/12 09:27:29;;;;;;;;;;;24.90;32.00;;;23.91;33.90;101533.53;12246696;19;19982;-86
2023/05/12 09:31:31;;;;;;;;;;;25.00;30.10;;;23.83;33.71;101500.44;12250536;19;19915;-85
2023/05/12 09:35:43;;;;;;;;;;;25.10;31.00;;;23.99;33.37;101522.94;12244672;19;19914;-85
2023/05/12 09:39:45;;;;;;;;;;;25.10;31.20;;;23.93;33.74;101488.88;12249274;19;19919;-85
2023/05/12 09:43:46;;;;;;;;;;;25.40;31.40;;;24.14;33.62;101523.22;12249905;19;19915;-85
2023/05/12 09:47:48;;;;;;;;;;;25.20;30.00;;;24.22;33.16;101520.63;12253569;19;19918;-85
2023/05/12 09:51:55;;;;;;;;;;;25.30;29.70;;;24.29;33.52;101519.84;12261921;19;19911;-85
2023/05/12 09:55:56;;;;;;;;;;;25.40;31.20;;;24.38;33.05;101526.09;12258381;19;19926;-86
2023/05/12 09:59:59;;;;;;;;;;;25.50;29.60;;;24.32;32.93;101513.38;12261804;19;19931;-85
2023/05/12 10:04:01;;;;;;;;;;;25.40;30.00;;;24.41;32.83;101508.91;12257884;19;20294;-85
2023/05/12 10:08:04;;;;;;;;;;;25.50;30.00;;;24.50;32.61;101521.38;12252000;19;19974;-85
2023/05/12 10:12:07;;;;;;;;;;;25.60;30.70;;;24.47;33.05;101503.00;12256569;19;19927;-85
2023/05/12 10:16:09;;;;;;;;;;;25.60;31.30;;;24.43;32.92;101493.59;12254649;19;19941;-85
2023/05/12 10:20:12;;;;;;;;;;;25.60;30.50;;;24.56;32.82;101510.06;12258704;19;19911;-85
2023/05/12 10:24:17;;;;;;;;;;;25.60;29.70;;;24.67;32.38;101512.47;12258454;19;19923;-85
2023/05/12 10:28:19;;;;;;;;;;;25.70;28.80;;;24.57;32.66;101482.34;12253542;19;20064;-86
2023/05/12 10:32:20;;;;;;;;;;;25.70;30.00;;;24.75;32.16;101503.66;12257649;19;19931;-85
2023/05/12 10:36:22;;;;;;;;;;;25.80;30.10;;;24.89;31.87;101496.88;12251268;19;19996;-85
2023/05/12 10:40:24;;;;;;;;;;;25.80;28.40;;;24.87;31.87;101491.72;12253042;19;19923;-85
2023/05/12 10:44:27;;;;;;;;;;;25.90;30.80;;;25.03;32.35;101498.13;12255225;19;19922;-86
2023/05/12 10:48:28;;;;;;;;;;;26.00;29.30;;;24.81;31.82;101454.09;12251266;19;19945;-86
2023/05/12 10:52:29;;;;;;;;;;;26.00;29.80;;;25.08;31.97;101471.75;12255922;19;19919;-84
2023/05/12 10:56:37;;;;;;;;;;;26.10;28.70;;;25.25;31.43;101475.34;12255701;19;19915;-85
2023/05/12 11:00:48;;;;;;;;;;;26.20;27.20;;;25.21;31.56;101479.34;12258286;19;19919;-85
2023/05/12 11:04:51;;;;;;;;;;;26.20;28.50;;;25.16;31.39;101466.47;12259506;19;19915;-85
2023/05/12 11:08:53;;;;;;;;;;;26.30;27.80;;;25.27;31.52;101473.34;12254652;19;19915;-86
2023/05/12 11:12:55;;;;;;;;;;;26.30;28.60;;;25.29;30.99;101458.81;12254931;19;20352;-84
2023/05/12 11:16:56;;;;;;;;;;;26.40;28.10;;;25.13;30.62;101437.34;12251454;19;19966;-86
2023/05/12 11:21:07;;;;;;;;;;;26.40;27.40;;;25.35;30.54;101478.72;12257912;19;19911;-86
2023/05/12 11:25:10;;;;;;;;;;;26.40;27.40;;;25.34;30.79;101477.88;12253263;19;19926;-85
2023/05/12 11:29:11;;;;;;;;;;;26.40;28.30;;;25.33;30.48;101467.34;12243659;19;19919;-84
2023/05/12 11:33:18;;;;;;;;;;;26.40;27.70;;;25.47;30.32;101487.28;12255109;19;19923;-83
2023/05/12 11:37:19;;;;;;;;;;;26.40;28.90;;;25.38;30.23;101456.97;12253072;19;19946;-85
2023/05/12 11:41:23;;;;;;;;;;;26.50;27.30;;;25.39;30.15;101464.03;12253904;19;20310;-83
2023/05/12 11:45:27;;;;;;;;;;;26.40;27.20;;;25.37;29.56;101466.03;12252054;19;19926;-84
2023/05/12 11:49:30;;;;;;;;;;;26.40;28.00;;;25.51;29.42;101477.91;12252014;19;19922;-83
2023/05/12 11:53:34;;;;;;;;;;;26.50;27.60;;;25.53;29.58;101483.94;12254269;19;19914;-84
2023/05/12 11:57:36;;;;;;;;;;;26.50;27.50;;;25.50;29.47;101471.72;12248942;19;19919;-84
2023/05/12 12:01:45;;;;;;;;;;;26.50;27.40;;;25.36;29.34;101473.22;12253889;19;19919;-83
2023/05/12 12:06:01;;;;;;;;;;;26.50;27.00;;;25.56;29.52;101481.78;12251532;19;19956;-86
2023/05/12 12:10:13;;;;;;;;;;;26.50;28.00;;;25.68;29.58;101484.97;12250152;19;19982;-85
2023/05/12 12:14:15;;;;;;;;;;;26.60;29.00;;;25.69;29.60;101485.81;12253346;19;19919;-85
2023/05/12 12:18:17;;;;;;;;;;;26.60;29.00;;;25.83;29.46;101491.38;12254997;19;19919;-86
2023/05/12 12:22:19;;;;;;;;;;;26.70;27.40;;;25.82;29.02;101486.16;12253608;19;19970;-85
2023/05/12 12:26:21;;;;;;;;;;;26.70;27.90;;;25.86;29.30;101476.81;12251445;19;19922;-86
2023/05/12 12:30:23;;;;;;;;;;;26.80;28.30;;;26.04;29.25;101495.41;12247654;19;19923;-86
2023/05/12 12:34:24;;;;;;;;;;;26.90;28.70;;;25.98;29.31;101472.00;12252197;19;19915;-84
2023/05/12 12:38:26;;;;;;;;;;;26.90;28.50;;;26.08;29.24;101491.38;12251238;19;19911;-85
2023/05/12 12:42:27;;;;;;;;;;;27.00;27.50;;;25.92;29.18;101470.78;12252600;19;19978;-86
2023/05/12 12:46:29;;;;;;;;;;;27.00;26.50;;;26.05;28.91;101492.53;12251102;19;19978;-86
2023/05/12 12:50:31;;;;;;;;;;;27.00;28.90;;;25.99;29.22;101489.72;12251571;19;19922;-85
2023/05/12 12:54:33;;;;;;;;;;;27.00;28.30;;;26.11;29.00;101483.00;12253158;19;19982;-85
2023/05/12 12:58:35;;;;;;;;;;;27.00;28.50;;;26.12;28.90;101483.84;12252127;19;19943;-86
2023/05/12 13:02:36;;;;;;;;;;;27.10;26.60;;;26.10;28.79;101484.00;12245564;19;19918;-86
2023/05/12 13:06:38;;;;;;;;;;;27.10;26.70;;;26.10;28.49;101475.97;12250385;19;19939;-85
2023/05/12 13:10:40;;;;;;;;;;;27.10;27.60;;;26.03;28.68;101461.59;12252732;19;19922;-86
2023/05/12 13:14:42;;;;;;;;;;;27.00;26.90;;;26.03;28.27;101470.47;12249735;19;19929;-85
2023/05/12 13:18:44;;;;;;;;;;;27.00;27.70;;;26.06;28.28;101474.66;12248858;19;19911;-85
2023/05/12 13:22:46;;;;;;;;;;;27.00;28.10;;;26.23;28.59;101478.16;12250490;19;20354;-85
2023/05/12 13:26:48;;;;;;;;;;;27.10;28.80;;;26.27;28.35;101477.66;12248785;19;19911;-85
2023/05/12 13:30:52;;;;;;;;;;;27.10;28.50;;;26.12;28.55;101454.41;12250454;19;19915;-85
2023/05/12 13:34:54;;;;;;;;;;;27.10;28.50;;;26.29;28.52;101477.47;12248855;19;19915;-85
2023/05/12 13:38:56;;;;;;;;;;;27.20;28.90;;;26.36;28.49;101457.06;12251513;19;19919;-85
2023/05/12 13:42:58;;;;;;;;;;;27.40;28.60;;;26.43;28.28;101479.44;12251835;19;20012;-85
2023/05/12 13:46:59;;;;;;;;;;;27.30;28.20;;;26.25;28.18;101455.56;12246558;19;19923;-86
2023/05/12 13:51:01;;;;;;;;;;;27.30;27.90;;;26.40;28.19;101463.72;12251913;19;19911;-85
2023/05/12 13:55:03;;;;;;;;;;;27.40;27.90;;;26.49;28.04;101464.53;12232797;19;19918;-85
2023/05/12 13:59:04;;;;;;;;;;;27.30;28.10;;;26.49;28.19;101465.38;12251195;19;19974;-87
2023/05/12 14:03:06;;;;;;;;;;;27.40;27.90;;;26.44;28.15;101459.72;12245249;19;20337;-87
2023/05/12 14:07:08;;;;;;;;;;;27.40;28.80;;;26.49;28.39;101459.19;12245594;19;19947;-86
2023/05/12 14:11:10;;;;;;;;;;;27.40;28.50;;;26.56;27.96;101467.41;12247377;19;19974;-86
2023/05/12 14:15:11;;;;;;;;;;;27.40;29.10;;;26.60;27.99;101463.38;12245424;19;19956;-86
2023/05/12 14:19:13;;;;;;;;;;;27.50;29.00;;;26.59;28.44;101453.66;12244836;19;19915;-86
2023/05/12 14:23:14;;;;;;;;;;;27.50;28.20;;;26.68;28.10;101471.38;12245560;19;19996;-87
2023/05/12 14:27:15;;;;;;;;;;;27.60;29.00;;;26.63;27.85;101461.19;12242402;19;19919;-86
2023/05/12 14:31:17;;;;;;;;;;;27.60;27.10;;;26.68;28.17;101474.06;12246128;19;20284;-86
2023/05/12 14:35:18;;;;;;;;;;;27.60;28.20;;;26.63;27.74;101457.69;12255531;19;20251;-85
2023/05/12 14:39:19;;;;;;;;;;;27.60;28.90;;;26.65;27.85;101461.00;12260483;19;20008;-87
2023/05/12 14:43:21;;;;;;;;;;;27.50;28.00;;;26.64;27.92;101454.81;12258312;19;19974;-86
2023/05/12 14:47:23;;;;;;;;;;;27.50;27.50;;;26.70;27.63;101469.38;12253860;19;19922;-86
2023/05/12 14:51:24;;;;;;;;;;;27.50;27.90;;;26.66;27.63;101462.69;12257979;19;19915;-86
2023/05/12 14:55:25;;;;;;;;;;;27.50;27.10;;;26.67;27.74;101472.41;12254837;19;19923;-85
2023/05/12 14:59:30;;;;;;;;;;;27.50;27.30;;;26.65;27.78;101469.91;12258939;19;19915;-86
2023/05/12 15:03:32;;;;;;;;;;;27.50;27.30;;;26.61;27.86;101471.25;12256874;19;19933;-85
2023/05/12 15:07:34;;;;;;;;;;;27.50;27.30;;;26.56;27.61;101462.06;12253799;19;20265;-86
2023/05/12 15:11:36;;;;;;;;;;;27.40;27.20;;;26.53;27.60;101465.06;12258023;19;20073;-86
2023/05/12 15:15:38;;;;;;;;;;;27.40;27.30;;;26.52;27.24;101474.09;12254492;19;19945;-86
2023/05/12 15:19:39;;;;;;;;;;;27.30;27.70;;;26.49;27.24;101476.09;12257703;19;20452;-86
2023/05/12 15:23:42;;;;;;;;;;;27.30;26.80;;;26.31;27.33;101448.69;12259412;19;19914;-86
2023/05/12 15:27:44;;;;;;;;;;;27.30;27.30;;;26.37;27.46;101469.41;12254204;19;19918;-86
2023/05/12 15:31:47;;;;;;;;;;;27.30;28.10;;;26.36;27.37;101459.72;12257482;19;19933;-86
2023/05/12 15:35:49;;;;;;;;;;;27.30;28.10;;;26.11;27.29;101434.81;12254871;19;20312;-86
2023/05/12 15:39:51;;;;;;;;;;;27.20;26.80;;;26.33;27.43;101484.19;12254849;19;19939;-86
2023/05/12 15:43:52;;;;;;;;;;;27.10;27.70;;;26.26;27.24;101469.78;12250979;19;19923;-86
2023/05/12 15:47:55;;;;;;;;;;;27.10;27.80;;;26.12;27.21;101446.38;12249053;19;19978;-86
2023/05/12 15:51:56;;;;;;;;;;;27.10;27.60;;;26.23;27.42;101472.81;12255680;19;19948;-86
2023/05/12 15:56:02;;;;;;;;;;;27.10;27.60;;;26.16;26.92;101459.22;12253301;19;19967;-86
2023/05/12 16:00:05;;;;;;;;;;;27.10;27.40;;;26.24;27.36;101469.09;12253041;19;19979;-86
2023/05/12 16:04:14;;;;;;;;;;;27.00;27.60;;;26.13;26.98;101450.72;12255177;19;19919;-86
2023/05/12 16:08:15;;;;;;;;;;;27.00;27.70;;;26.09;27.14;101454.75;12250548;19;19914;-87
2023/05/12 16:12:17;;;;;;;;;;;27.00;26.80;;;26.02;27.29;101450.03;12251997;19;19914;-87
2023/05/12 16:16:19;;;;;;;;;;;26.90;27.10;;;25.92;26.71;101451.22;12249602;19;19998;-87
2023/05/12 16:20:20;;;;;;;;;;;26.80;27.10;;;25.73;27.28;101429.09;12253762;19;20533;-87
2023/05/12 16:24:22;;;;;;;;;;;26.70;27.90;;;25.88;26.86;101468.63;12253331;19;20336;-87
2023/05/12 16:28:23;;;;;;;;;;;26.70;26.90;;;25.55;26.62;101417.75;12251821;19;19947;-88
2023/05/12 16:32:25;;;;;;;;;;;26.60;27.60;;;25.73;26.85;101452.34;12249752;19;19922;-87
2023/05/12 16:36:28;;;;;;;;;;;26.50;27.10;;;25.66;26.57;101451.38;12247600;19;20416;-87
2023/05/12 16:40:30;;;;;;;;;;;26.40;27.60;;;25.58;26.66;101446.84;12250479;19;20285;-86
2023/05/12 16:44:31;;;;;;;;;;;26.40;27.30;;;25.50;26.76;101450.34;12250728;19;20540;-87
2023/05/12 16:48:33;;;;;;;;;;;26.30;26.80;;;25.27;26.62;101422.53;12252002;19;20301;-86
2023/05/12 16:52:35;;;;;;;;;;;26.30;27.80;;;25.37;26.76;101450.81;12250937;19;20413;-86
2023/05/12 16:56:36;;;;;;;;;;;26.20;27.30;;;25.16;26.90;101432.53;12248219;19;20707;-87
2023/05/12 17:00:40;;;;;;;;;;;26.10;27.30;;;25.25;27.12;101457.47;12251278;19;19910;-86
2023/05/12 17:04:42;;;;;;;;;;;26.10;28.00;;;25.22;27.08;101462.28;12244504;19;19923;-86
2023/05/12 17:08:43;;;;;;;;;;;26.00;27.90;;;25.16;26.32;101464.63;12247060;19;19919;-86
2023/05/12 17:12:45;;;;;;;;;;;26.00;28.00;;;25.03;26.88;101440.16;12250299;19;19918;-85
2023/05/12 17:16:46;;;;;;;;;;;25.90;27.70;;;24.96;27.00;101452.50;12247056;19;19915;-85
2023/05/12 17:20:48;;;;;;;;;;;25.90;27.90;;;25.01;26.82;101476.06;12245835;19;19923;-87
2023/05/12 17:24:50;;;;;;;;;;;25.80;27.70;;;24.82;26.61;101459.28;12240432;19;19927;-87
2023/05/12 17:28:51;;;;;;;;;;;25.70;27.60;;;24.76;26.70;101469.75;12239824;19;20006;-85
2023/05/12 17:32:53;;;;;;;;;;;25.70;28.10;;;24.76;26.61;101483.13;12247923;19;19974;-85
2023/05/12 17:36:54;;;;;;;;;;;25.60;28.20;;;24.58;26.97;101461.84;12246984;19;19910;-85
2023/05/12 17:40:56;;;;;;;;;;;25.50;27.70;;;24.63;26.62;101487.06;12243353;19;19922;-86
2023/05/12 17:44:57;;;;;;;;;;;25.40;27.80;;;24.56;27.03;101493.22;12247837;19;19922;-86
2023/05/12 17:48:59;;;;;;;;;;;25.30;28.00;;;24.43;27.14;101477.56;12245175;19;20333;-87
2023/05/12 17:53:00;;;;;;;;;;;25.30;27.80;;;24.49;26.95;101498.31;12249105;19;19915;-87
2023/05/12 17:57:02;;;;;;;;;;;25.20;28.30;;;24.39;26.76;101482.38;12243346;19;20349;-86
2023/05/12 18:01:04;;;;;;;;;;;25.10;28.30;;;24.38;27.18;101496.72;12248567;19;20327;-86
2023/05/12 18:05:06;;;;;;;;;;;25.10;28.60;;;24.25;27.27;101485.63;12246743;19;19935;-88
2023/05/12 18:09:07;;;;;;;;;;;25.10;27.90;;;24.12;26.82;101493.19;12248143;19;19923;-86